ADDS TAF Board (Experimental) INFO

IDs: Format: Expanded Condensed

Updated at: 1626 UTC 21 Nov 2014

KMIA - Miami Intl, FL, US

Issued at 1618 UTC 21 Nov 2014
Time1603Z21/17Z21/18Z21/19Z21/20Z21/21Z21/22Z21/23Z22/00Z22/01Z22/02Z22/03Z22/04Z22/05Z
TypeOBSPRVLPRVLPRVLPRVLPRVLPRVLPRVLPRVLPRVLPRVLPRVLPRVLPRVL
VIS1.7533>6>6>6>6>6>6>6>6>6>6>6
CIG1620202525252525353535353535
CoverOVCOVCOVCOVCOVCOVCOVCOVCOVCOVCOVCOVCOVCOVC
FltCatIFRMVFRMVFRMVFRMVFRMVFRMVFRMVFRVFRVFRVFRVFRVFRVFR
WX-RA BR-RA-RAVCSHVCSHVCSHVCSHVCSH------------
WDir4050506060606060505050505050
WSpd9991212121212111111111111
WGst------2121212121------------
R08/26
XWnd75555555777777
XGst------1010101010------------
HWnd6771111111111999999
HGst------1919191919------------
R09/27
XWnd75555555777777
XGst------1010101010------------
HWnd6771111111111999999
HGst------1919191919------------
R12/30
XWnd9881010101010101010101010
XGst------1818181818------------
HWnd23366666444444
HGst------1111111111------------
Raw TAF
KMIA 211618Z 2116/2212 05009KT 3SM -RA SCT005 OVC020
  TEMPO 2116/2117 2SM -RA BKN005 OVC020
  FM211900 06012G21KT P6SM VCSH OVC025
  FM220000 05011KT P6SM OVC035


Raw METAR
KMIA 211603Z 04009KT 1 3/4SM -RA BR FEW008 BKN016 OVC030 22/21 A3019 RMK AO2 P0001 T02170206
KMIA 211553Z 04009KT 2 1/2SM -RA BR FEW005 BKN019 OVC035 22/21 A3019 RMK AO2 RAE07B21 SLP221 P0000 T02170206
KMIA 211546Z 05010G18KT 2 1/2SM -RA BR FEW005 BKN019 OVC035 22/20 A3019 RMK AO2 RAE07B21 P0000 T02170200

TAF Board Legend

Hazard VFR MVFR IFR LIFR
Visibility (sm) >5 3≤X≤5 1≤X<3 <1
Ceiling (100 ft) >30 10≤X≤30 5≤X<10 <5
Wind Speed (kt) <10 10≤X<20 20≤X<30 ≥30
Wind Gust (kt) <15 15≤X<25 25≤X<35 ≥35
Weather No Wx Reported VCTS,-TS,-FZRA TS,FZRA +TS,+FZRA


Page loaded:  16:26 UTC  |   08:26 AM Pacific  |   09:26 AM Mountain  |   10:26 AM Central  |   11:26 AM Eastern

 

ADVISORIES

FORECASTS

FORECASTS

OBSERVATIONS

USER TOOLS

ABOUT US